Roosevelt, Washington
Current Conditions -  °F | °C
As of 4:53 AM on Sunday 21 Dec 2014 (Local Time) from KHRI Reporting Station
Clear Clear  
Wind Chill: 57°   Ceiling: Unl
Heat Index: 57°   Visibility: 10mi
Dew Point: 44°   Wind: 26mph
Humidity: 62%   Direction: 260°W
Pressure: 29.73"   Gusts: 37mph
Location:  45.74°N, 120.21°W
Report Text: KHRI 211253Z AUTO 26023G32KT 10SM CLR 14/07 A2973 RMK AO2 PK WND 25032/1240 SLP067 T01390067
Loading
Personal Weather Stations






























Interactive Weather Map New forecast layout! Learn more

10-Day Weather Forecast

Advertisements
Track Severe Weather on mobile